sensor_id;sensor_type;location;lat;lon;timestamp;temperature;humidity
3684;DHT22;1858;48.716;9.648;2023-06-22T00:00:26;21.20;1.00
3684;DHT22;1858;48.716;9.648;2023-06-22T00:02:54;21.20;2.70
3684;DHT22;1858;48.716;9.648;2023-06-22T00:05:22;21.20;57.20
3684;DHT22;1858;48.716;9.648;2023-06-22T00:07:51;21.10;23.30
3684;DHT22;1858;48.716;9.648;2023-06-22T00:10:19;21.10;22.40
3684;DHT22;1858;48.716;9.648;2023-06-22T00:12:48;21.10;25.50
3684;DHT22;1858;48.716;9.648;2023-06-22T00:15:16;21.00;33.40
3684;DHT22;1858;48.716;9.648;2023-06-22T00:17:45;21.00;50.70
3684;DHT22;1858;48.716;9.648;2023-06-22T00:20:13;21.00;39.10
3684;DHT22;1858;48.716;9.648;2023-06-22T00:22:42;20.90;23.80
3684;DHT22;1858;48.716;9.648;2023-06-22T00:25:11;20.90;64.30
3684;DHT22;1858;48.716;9.648;2023-06-22T00:27:39;21.00;99.90
3684;DHT22;1858;48.716;9.648;2023-06-22T00:30:08;21.00;99.90
3684;DHT22;1858;48.716;9.648;2023-06-22T00:32:37;21.00;99.60
3684;DHT22;1858;48.716;9.648;2023-06-22T00:35:07;21.00;99.90
3684;DHT22;1858;48.716;9.648;2023-06-22T00:37:39;20.90;99.90
3684;DHT22;1858;48.716;9.648;2023-06-22T00:40:10;20.90;99.90
3684;DHT22;1858;48.716;9.648;2023-06-22T00:42:39;20.90;99.90
3684;DHT22;1858;48.716;9.648;2023-06-22T00:45:08;20.80;99.90
3684;DHT22;1858;48.716;9.648;2023-06-22T00:47:36;20.80;99.90
3684;DHT22;1858;48.716;9.648;2023-06-22T00:50:07;20.80;99.90
3684;DHT22;1858;48.716;9.648;2023-06-22T00:52:37;20.70;99.90
3684;DHT22;1858;48.716;9.648;2023-06-22T00:55:08;20.70;99.90
3684;DHT22;1858;48.716;9.648;2023-06-22T01:00:25;20.60;99.90
3684;DHT22;1858;48.716;9.648;2023-06-22T01:02:54;20.60;99.90
3684;DHT22;1858;48.716;9.648;2023-06-22T01:05:23;20.50;99.90
3684;DHT22;1858;48.716;9.648;2023-06-22T01:10:55;20.50;99.90
3684;DHT22;1858;48.716;9.648;2023-06-22T01:16:32;20.40;99.90
3684;DHT22;1858;48.716;9.648;2023-06-22T01:19:20;20.40;99.90
3684;DHT22;1858;48.716;9.648;2023-06-22T01:22:15;20.40;99.90
3684;DHT22;1858;48.716;9.648;2023-06-22T01:25:21;20.30;1.00
3684;DHT22;1858;48.716;9.648;2023-06-22T01:30:41;20.30;1.00
3684;DHT22;1858;48.716;9.648;2023-06-22T01:33:13;20.20;1.00
3684;DHT22;1858;48.716;9.648;2023-06-22T01:35:43;20.00;1.00
3684;DHT22;1858;48.716;9.648;2023-06-22T01:38:31;19.90;1.00
3684;DHT22;1858;48.716;9.648;2023-06-22T01:41:01;19.90;1.00
3684;DHT22;1858;48.716;9.648;2023-06-22T01:43:30;19.80;17.10
3684;DHT22;1858;48.716;9.648;2023-06-22T01:46:19;19.70;99.90
3684;DHT22;1858;48.716;9.648;2023-06-22T01:49:07;19.60;99.90
3684;DHT22;1858;48.716;9.648;2023-06-22T01:51:36;19.50;99.90
3684;DHT22;1858;48.716;9.648;2023-06-22T01:54:06;19.30;1.00
3684;DHT22;1858;48.716;9.648;2023-06-22T01:56:36;19.20;1.00
3684;DHT22;1858;48.716;9.648;2023-06-22T02:05:09;19.40;1.00
3684;DHT22;1858;48.716;9.648;2023-06-22T02:07:44;19.40;1.00
3684;DHT22;1858;48.716;9.648;2023-06-22T02:10:31;19.40;1.00
3684;DHT22;1858;48.716;9.648;2023-06-22T02:13:01;19.40;99.90
3684;DHT22;1858;48.716;9.648;2023-06-22T02:15:31;19.40;99.90
3684;DHT22;1858;48.716;9.648;2023-06-22T02:18:00;19.30;99.90
3684;DHT22;1858;48.716;9.648;2023-06-22T02:20:29;19.30;99.90
3684;DHT22;1858;48.716;9.648;2023-06-22T02:22:57;19.40;1.00
3684;DHT22;1858;48.716;9.648;2023-06-22T02:25:25;19.40;99.90
3684;DHT22;1858;48.716;9.648;2023-06-22T02:27:54;19.40;99.90
3684;DHT22;1858;48.716;9.648;2023-06-22T02:30:22;19.30;99.90
3684;DHT22;1858;48.716;9.648;2023-06-22T02:32:51;19.30;99.90
3684;DHT22;1858;48.716;9.648;2023-06-22T02:35:21;19.30;99.90
3684;DHT22;1858;48.716;9.648;2023-06-22T02:37:49;19.40;99.90
3684;DHT22;1858;48.716;9.648;2023-06-22T02:40:19;19.30;99.90
3684;DHT22;1858;48.716;9.648;2023-06-22T02:42:47;19.30;99.90
3684;DHT22;1858;48.716;9.648;2023-06-22T02:45:15;19.30;99.90
3684;DHT22;1858;48.716;9.648;2023-06-22T02:47:44;19.30;99.90
3684;DHT22;1858;48.716;9.648;2023-06-22T02:50:13;19.30;99.90
3684;DHT22;1858;48.716;9.648;2023-06-22T02:52:41;19.30;99.90
3684;DHT22;1858;48.716;9.648;2023-06-22T02:55:10;19.30;99.90
3684;DHT22;1858;48.716;9.648;2023-06-22T02:57:38;19.40;99.90
3684;DHT22;1858;48.716;9.648;2023-06-22T03:02:58;19.40;99.90
3684;DHT22;1858;48.716;9.648;2023-06-22T03:05:26;19.40;99.90
3684;DHT22;1858;48.716;9.648;2023-06-22T03:07:54;19.40;99.90
3684;DHT22;1858;48.716;9.648;2023-06-22T03:10:23;19.40;99.90
3684;DHT22;1858;48.716;9.648;2023-06-22T03:12:51;19.30;99.90
3684;DHT22;1858;48.716;9.648;2023-06-22T03:15:20;19.30;99.90
3684;DHT22;1858;48.716;9.648;2023-06-22T03:17:48;19.30;99.90
3684;DHT22;1858;48.716;9.648;2023-06-22T03:20:16;19.30;99.90
3684;DHT22;1858;48.716;9.648;2023-06-22T03:22:46;19.40;99.90
3684;DHT22;1858;48.716;9.648;2023-06-22T03:25:16;19.20;99.90
3684;DHT22;1858;48.716;9.648;2023-06-22T03:27:44;19.10;1.00
3684;DHT22;1858;48.716;9.648;2023-06-22T03:30:15;19.10;1.00
3684;DHT22;1858;48.716;9.648;2023-06-22T03:32:43;19.20;1.00
3684;DHT22;1858;48.716;9.648;2023-06-22T03:35:14;19.30;1.00
3684;DHT22;1858;48.716;9.648;2023-06-22T03:37:42;19.30;1.00
3684;DHT22;1858;48.716;9.648;2023-06-22T03:40:11;19.30;1.00
3684;DHT22;1858;48.716;9.648;2023-06-22T03:43:00;19.40;1.00
3684;DHT22;1858;48.716;9.648;2023-06-22T03:45:28;19.30;99.90
3684;DHT22;1858;48.716;9.648;2023-06-22T03:47:57;19.30;99.90
3684;DHT22;1858;48.716;9.648;2023-06-22T03:50:25;19.30;99.90
3684;DHT22;1858;48.716;9.648;2023-06-22T03:52:53;19.30;99.90
3684;DHT22;1858;48.716;9.648;2023-06-22T03:55:22;19.30;99.90
3684;DHT22;1858;48.716;9.648;2023-06-22T03:57:50;19.30;99.90
3684;DHT22;1858;48.716;9.648;2023-06-22T04:00:20;19.20;99.90
3684;DHT22;1858;48.716;9.648;2023-06-22T04:02:49;19.30;99.90
3684;DHT22;1858;48.716;9.648;2023-06-22T04:05:17;19.30;99.90
3684;DHT22;1858;48.716;9.648;2023-06-22T04:07:46;19.40;99.90
3684;DHT22;1858;48.716;9.648;2023-06-22T04:10:15;19.50;1.00
3684;DHT22;1858;48.716;9.648;2023-06-22T04:12:44;19.50;99.90
3684;DHT22;1858;48.716;9.648;2023-06-22T04:15:12;19.70;99.90
3684;DHT22;1858;48.716;9.648;2023-06-22T04:17:41;19.70;99.90
3684;DHT22;1858;48.716;9.648;2023-06-22T04:20:09;19.80;99.90
3684;DHT22;1858;48.716;9.648;2023-06-22T04:22:38;19.80;1.00
3684;DHT22;1858;48.716;9.648;2023-06-22T04:25:07;19.90;2.40
3684;DHT22;1858;48.716;9.648;2023-06-22T04:27:35;20.00;1.00
3684;DHT22;1858;48.716;9.648;2023-06-22T04:30:07;20.10;1.00
3684;DHT22;1858;48.716;9.648;2023-06-22T04:32:55;20.10;1.00
3684;DHT22;1858;48.716;9.648;2023-06-22T04:35:27;20.20;1.00
3684;DHT22;1858;48.716;9.648;2023-06-22T04:37:57;20.20;1.00
3684;DHT22;1858;48.716;9.648;2023-06-22T04:40:26;20.40;99.90
3684;DHT22;1858;48.716;9.648;2023-06-22T04:42:54;20.40;99.90
3684;DHT22;1858;48.716;9.648;2023-06-22T04:45:23;20.50;1.00
3684;DHT22;1858;48.716;9.648;2023-06-22T04:47:51;20.60;99.90
3684;DHT22;1858;48.716;9.648;2023-06-22T04:50:19;20.70;99.90
3684;DHT22;1858;48.716;9.648;2023-06-22T04:58:30;21.00;99.90
3684;DHT22;1858;48.716;9.648;2023-06-22T05:01:00;21.10;81.10
3684;DHT22;1858;48.716;9.648;2023-06-22T05:03:28;21.20;1.00
3684;DHT22;1858;48.716;9.648;2023-06-22T05:05:56;21.30;1.00
3684;DHT22;1858;48.716;9.648;2023-06-22T05:08:25;21.30;1.00
3684;DHT22;1858;48.716;9.648;2023-06-22T05:10:54;21.40;1.00
3684;DHT22;1858;48.716;9.648;2023-06-22T05:13:22;21.50;1.00
3684;DHT22;1858;48.716;9.648;2023-06-22T05:15:52;21.60;1.00
3684;DHT22;1858;48.716;9.648;2023-06-22T05:18:22;21.70;1.00
3684;DHT22;1858;48.716;9.648;2023-06-22T05:20:51;21.80;1.00
3684;DHT22;1858;48.716;9.648;2023-06-22T05:23:20;21.90;1.00
3684;DHT22;1858;48.716;9.648;2023-06-22T05:25:48;22.00;1.00
3684;DHT22;1858;48.716;9.648;2023-06-22T05:28:16;22.20;99.90
3684;DHT22;1858;48.716;9.648;2023-06-22T05:30:46;22.40;99.90
3684;DHT22;1858;48.716;9.648;2023-06-22T05:33:15;22.60;99.90
3684;DHT22;1858;48.716;9.648;2023-06-22T05:36:03;22.80;99.90
3684;DHT22;1858;48.716;9.648;2023-06-22T05:38:32;22.90;99.90
3684;DHT22;1858;48.716;9.648;2023-06-22T05:41:00;23.00;99.90
3684;DHT22;1858;48.716;9.648;2023-06-22T05:43:29;23.00;99.90
3684;DHT22;1858;48.716;9.648;2023-06-22T05:46:00;23.10;99.90
3684;DHT22;1858;48.716;9.648;2023-06-22T05:48:28;23.20;99.90
3684;DHT22;1858;48.716;9.648;2023-06-22T05:50:56;23.30;99.90
3684;DHT22;1858;48.716;9.648;2023-06-22T05:53:25;23.40;99.90
3684;DHT22;1858;48.716;9.648;2023-06-22T05:55:54;23.50;99.90
3684;DHT22;1858;48.716;9.648;2023-06-22T05:58:22;23.70;71.10
3684;DHT22;1858;48.716;9.648;2023-06-22T06:00:51;23.80;43.50
3684;DHT22;1858;48.716;9.648;2023-06-22T06:03:21;23.90;26.10
3684;DHT22;1858;48.716;9.648;2023-06-22T06:05:50;24.00;1.00
3684;DHT22;1858;48.716;9.648;2023-06-22T06:08:19;24.30;1.00
3684;DHT22;1858;48.716;9.648;2023-06-22T06:10:47;24.50;1.00
3684;DHT22;1858;48.716;9.648;2023-06-22T06:13:16;24.60;1.00
3684;DHT22;1858;48.716;9.648;2023-06-22T06:15:44;25.00;1.00
3684;DHT22;1858;48.716;9.648;2023-06-22T06:18:12;25.20;1.00
3684;DHT22;1858;48.716;9.648;2023-06-22T06:20:41;25.60;1.00
3684;DHT22;1858;48.716;9.648;2023-06-22T06:23:10;25.90;99.90
3684;DHT22;1858;48.716;9.648;2023-06-22T06:25:40;26.30;99.90
3684;DHT22;1858;48.716;9.648;2023-06-22T06:28:08;26.80;99.90
3684;DHT22;1858;48.716;9.648;2023-06-22T06:30:56;27.30;99.90
3684;DHT22;1858;48.716;9.648;2023-06-22T06:33:24;27.90;99.90
3684;DHT22;1858;48.716;9.648;2023-06-22T06:35:53;28.80;99.90
3684;DHT22;1858;48.716;9.648;2023-06-22T06:38:23;29.70;99.90
3684;DHT22;1858;48.716;9.648;2023-06-22T06:40:51;30.70;99.90
3684;DHT22;1858;48.716;9.648;2023-06-22T06:43:20;31.60;51.80
3684;DHT22;1858;48.716;9.648;2023-06-22T06:45:48;32.40;10.90
3684;DHT22;1858;48.716;9.648;2023-06-22T06:48:16;33.40;1.00
3684;DHT22;1858;48.716;9.648;2023-06-22T06:50:45;34.20;1.00
3684;DHT22;1858;48.716;9.648;2023-06-22T06:53:13;35.20;1.00
3684;DHT22;1858;48.716;9.648;2023-06-22T06:55:42;36.10;1.00
3684;DHT22;1858;48.716;9.648;2023-06-22T06:58:12;36.60;1.00
3684;DHT22;1858;48.716;9.648;2023-06-22T07:00:40;37.50;1.00
3684;DHT22;1858;48.716;9.648;2023-06-22T07:03:10;38.10;1.00
3684;DHT22;1858;48.716;9.648;2023-06-22T07:05:39;38.60;1.00
3684;DHT22;1858;48.716;9.648;2023-06-22T07:08:07;39.20;1.00
3684;DHT22;1858;48.716;9.648;2023-06-22T07:10:36;39.60;1.00
3684;DHT22;1858;48.716;9.648;2023-06-22T07:13:04;40.20;1.00
3684;DHT22;1858;48.716;9.648;2023-06-22T07:15:33;40.70;1.00
3684;DHT22;1858;48.716;9.648;2023-06-22T07:18:01;41.00;1.00
3684;DHT22;1858;48.716;9.648;2023-06-22T07:20:30;41.30;1.00
3684;DHT22;1858;48.716;9.648;2023-06-22T07:22:58;41.80;1.00
3684;DHT22;1858;48.716;9.648;2023-06-22T07:25:27;42.10;1.00
3684;DHT22;1858;48.716;9.648;2023-06-22T07:30:47;43.10;1.00
3684;DHT22;1858;48.716;9.648;2023-06-22T07:33:15;43.60;1.00
3684;DHT22;1858;48.716;9.648;2023-06-22T07:35:44;44.20;1.00
3684;DHT22;1858;48.716;9.648;2023-06-22T07:38:14;43.90;1.00
3684;DHT22;1858;48.716;9.648;2023-06-22T07:40:43;44.20;1.00
3684;DHT22;1858;48.716;9.648;2023-06-22T07:43:12;44.40;1.00
3684;DHT22;1858;48.716;9.648;2023-06-22T07:45:40;44.60;1.00
3684;DHT22;1858;48.716;9.648;2023-06-22T07:48:12;45.30;1.00
3684;DHT22;1858;48.716;9.648;2023-06-22T07:50:40;45.30;1.00
3684;DHT22;1858;48.716;9.648;2023-06-22T07:53:08;45.40;1.00
3684;DHT22;1858;48.716;9.648;2023-06-22T07:55:37;45.80;1.00
3684;DHT22;1858;48.716;9.648;2023-06-22T07:58:05;46.10;1.00
3684;DHT22;1858;48.716;9.648;2023-06-22T08:00:34;45.80;1.00
3684;DHT22;1858;48.716;9.648;2023-06-22T08:03:02;45.70;1.00
3684;DHT22;1858;48.716;9.648;2023-06-22T08:05:32;45.80;1.00
3684;DHT22;1858;48.716;9.648;2023-06-22T08:08:01;46.10;1.00
3684;DHT22;1858;48.716;9.648;2023-06-22T08:10:29;46.70;1.00
3684;DHT22;1858;48.716;9.648;2023-06-22T08:12:58;46.80;1.00
3684;DHT22;1858;48.716;9.648;2023-06-22T08:15:27;46.70;1.00
3684;DHT22;1858;48.716;9.648;2023-06-22T08:17:55;46.60;1.00
3684;DHT22;1858;48.716;9.648;2023-06-22T08:20:25;46.60;1.00
3684;DHT22;1858;48.716;9.648;2023-06-22T08:22:55;46.70;1.00
3684;DHT22;1858;48.716;9.648;2023-06-22T08:25:25;46.40;1.00
3684;DHT22;1858;48.716;9.648;2023-06-22T08:27:53;46.30;1.00
3684;DHT22;1858;48.716;9.648;2023-06-22T08:30:22;46.10;1.00
3684;DHT22;1858;48.716;9.648;2023-06-22T08:32:50;46.20;1.00
3684;DHT22;1858;48.716;9.648;2023-06-22T08:35:19;45.70;1.00
3684;DHT22;1858;48.716;9.648;2023-06-22T08:37:48;45.50;1.00
3684;DHT22;1858;48.716;9.648;2023-06-22T08:40:18;45.60;1.00
3684;DHT22;1858;48.716;9.648;2023-06-22T08:42:47;45.70;1.00
3684;DHT22;1858;48.716;9.648;2023-06-22T08:45:16;46.00;1.00
3684;DHT22;1858;48.716;9.648;2023-06-22T08:47:45;46.10;99.90
3684;DHT22;1858;48.716;9.648;2023-06-22T08:50:33;46.30;1.00
3684;DHT22;1858;48.716;9.648;2023-06-22T08:53:01;46.50;99.90
3684;DHT22;1858;48.716;9.648;2023-06-22T08:55:30;46.60;99.90
3684;DHT22;1858;48.716;9.648;2023-06-22T08:57:58;46.90;99.90
3684;DHT22;1858;48.716;9.648;2023-06-22T09:00:27;47.20;1.00
3684;DHT22;1858;48.716;9.648;2023-06-22T09:02:56;47.70;99.90
3684;DHT22;1858;48.716;9.648;2023-06-22T09:05:26;48.10;99.90
3684;DHT22;1858;48.716;9.648;2023-06-22T09:07:56;48.50;99.90
3684;DHT22;1858;48.716;9.648;2023-06-22T09:10:26;48.80;99.90
3684;DHT22;1858;48.716;9.648;2023-06-22T09:12:54;48.30;99.90
3684;DHT22;1858;48.716;9.648;2023-06-22T09:15:23;48.00;99.90
3684;DHT22;1858;48.716;9.648;2023-06-22T09:17:52;48.30;99.90
3684;DHT22;1858;48.716;9.648;2023-06-22T09:20:21;49.10;99.90
3684;DHT22;1858;48.716;9.648;2023-06-22T09:22:50;49.60;99.90
3684;DHT22;1858;48.716;9.648;2023-06-22T09:25:18;49.90;99.90
3684;DHT22;1858;48.716;9.648;2023-06-22T09:27:48;50.20;99.90
3684;DHT22;1858;48.716;9.648;2023-06-22T09:30:16;50.40;99.90
3684;DHT22;1858;48.716;9.648;2023-06-22T09:33:04;50.20;99.90
3684;DHT22;1858;48.716;9.648;2023-06-22T09:35:32;50.10;99.90
3684;DHT22;1858;48.716;9.648;2023-06-22T09:38:01;50.00;99.90
3684;DHT22;1858;48.716;9.648;2023-06-22T09:40:30;49.40;99.90
3684;DHT22;1858;48.716;9.648;2023-06-22T09:43:00;49.50;99.90
3684;DHT22;1858;48.716;9.648;2023-06-22T09:45:28;49.90;99.90
3684;DHT22;1858;48.716;9.648;2023-06-22T09:47:57;49.90;99.90
3684;DHT22;1858;48.716;9.648;2023-06-22T09:50:25;50.00;99.90
3684;DHT22;1858;48.716;9.648;2023-06-22T09:52:54;50.20;99.90
3684;DHT22;1858;48.716;9.648;2023-06-22T09:55:22;50.00;99.90
3684;DHT22;1858;48.716;9.648;2023-06-22T09:57:51;49.90;99.90
3684;DHT22;1858;48.716;9.648;2023-06-22T10:00:19;50.40;99.90
3684;DHT22;1858;48.716;9.648;2023-06-22T10:02:49;50.70;99.90
3684;DHT22;1858;48.716;9.648;2023-06-22T10:05:37;51.20;99.90
3684;DHT22;1858;48.716;9.648;2023-06-22T10:08:05;51.40;99.90
3684;DHT22;1858;48.716;9.648;2023-06-22T10:10:36;51.70;99.90
3684;DHT22;1858;48.716;9.648;2023-06-22T10:13:09;51.90;99.90
3684;DHT22;1858;48.716;9.648;2023-06-22T10:15:39;51.50;99.90
3684;DHT22;1858;48.716;9.648;2023-06-22T10:18:07;50.70;99.90
3684;DHT22;1858;48.716;9.648;2023-06-22T10:20:36;49.40;99.90
3684;DHT22;1858;48.716;9.648;2023-06-22T10:23:04;47.80;99.90
3684;DHT22;1858;48.716;9.648;2023-06-22T10:25:33;48.20;99.90
3684;DHT22;1858;48.716;9.648;2023-06-22T10:28:01;48.70;99.90
3684;DHT22;1858;48.716;9.648;2023-06-22T10:30:30;48.60;99.90
3684;DHT22;1858;48.716;9.648;2023-06-22T10:32:58;47.70;99.90
3684;DHT22;1858;48.716;9.648;2023-06-22T10:35:46;46.60;99.90
3684;DHT22;1858;48.716;9.648;2023-06-22T10:38:14;45.70;99.90
3684;DHT22;1858;48.716;9.648;2023-06-22T10:40:43;44.70;99.90
3684;DHT22;1858;48.716;9.648;2023-06-22T10:43:14;44.30;99.90
3684;DHT22;1858;48.716;9.648;2023-06-22T10:45:43;44.00;99.90
3684;DHT22;1858;48.716;9.648;2023-06-22T10:48:12;44.20;99.90
3684;DHT22;1858;48.716;9.648;2023-06-22T10:50:40;44.50;1.00
3684;DHT22;1858;48.716;9.648;2023-06-22T10:53:08;44.80;99.90
3684;DHT22;1858;48.716;9.648;2023-06-22T10:55:37;45.00;99.90
3684;DHT22;1858;48.716;9.648;2023-06-22T10:58:05;45.30;99.90
3684;DHT22;1858;48.716;9.648;2023-06-22T11:00:34;45.30;99.90
3684;DHT22;1858;48.716;9.648;2023-06-22T11:03:02;45.00;99.90
3684;DHT22;1858;48.716;9.648;2023-06-22T11:05:32;44.30;99.90
3684;DHT22;1858;48.716;9.648;2023-06-22T11:08:00;44.40;99.90
3684;DHT22;1858;48.716;9.648;2023-06-22T11:10:29;44.30;99.90
3684;DHT22;1858;48.716;9.648;2023-06-22T11:12:57;44.00;99.90
3684;DHT22;1858;48.716;9.648;2023-06-22T11:15:26;43.60;1.00
3684;DHT22;1858;48.716;9.648;2023-06-22T11:17:54;43.20;99.90
3684;DHT22;1858;48.716;9.648;2023-06-22T11:20:23;42.90;99.90
3684;DHT22;1858;48.716;9.648;2023-06-22T11:22:51;42.50;1.00
3684;DHT22;1858;48.716;9.648;2023-06-22T11:25:19;42.40;1.00
3684;DHT22;1858;48.716;9.648;2023-06-22T11:27:48;42.20;1.00
3684;DHT22;1858;48.716;9.648;2023-06-22T11:30:16;41.80;1.00
3684;DHT22;1858;48.716;9.648;2023-06-22T11:32:45;41.70;1.00
3684;DHT22;1858;48.716;9.648;2023-06-22T11:35:14;41.40;1.00
3684;DHT22;1858;48.716;9.648;2023-06-22T11:37:42;41.20;1.00
3684;DHT22;1858;48.716;9.648;2023-06-22T11:40:11;41.10;1.00
3684;DHT22;1858;48.716;9.648;2023-06-22T11:42:40;41.00;1.00
3684;DHT22;1858;48.716;9.648;2023-06-22T11:45:08;40.90;1.00
3684;DHT22;1858;48.716;9.648;2023-06-22T11:47:37;40.90;1.00
3684;DHT22;1858;48.716;9.648;2023-06-22T11:50:07;40.70;1.00
3684;DHT22;1858;48.716;9.648;2023-06-22T11:52:36;40.50;1.00
3684;DHT22;1858;48.716;9.648;2023-06-22T11:57:55;40.20;1.00
3684;DHT22;1858;48.716;9.648;2023-06-22T12:00:26;39.80;1.00
3684;DHT22;1858;48.716;9.648;2023-06-22T12:02:54;39.60;1.00
3684;DHT22;1858;48.716;9.648;2023-06-22T12:05:23;39.30;1.00
3684;DHT22;1858;48.716;9.648;2023-06-22T12:07:54;39.10;1.00
3684;DHT22;1858;48.716;9.648;2023-06-22T12:10:23;39.00;1.00
3684;DHT22;1858;48.716;9.648;2023-06-22T12:12:52;38.90;1.00
3684;DHT22;1858;48.716;9.648;2023-06-22T12:15:20;38.70;1.00
3684;DHT22;1858;48.716;9.648;2023-06-22T12:17:49;38.50;1.00
3684;DHT22;1858;48.716;9.648;2023-06-22T12:20:17;38.40;1.00
3684;DHT22;1858;48.716;9.648;2023-06-22T12:22:46;38.40;1.00
3684;DHT22;1858;48.716;9.648;2023-06-22T12:25:15;38.50;1.00
3684;DHT22;1858;48.716;9.648;2023-06-22T12:27:43;38.50;1.00
3684;DHT22;1858;48.716;9.648;2023-06-22T12:30:12;38.40;1.00
3684;DHT22;1858;48.716;9.648;2023-06-22T12:32:40;38.30;1.00
3684;DHT22;1858;48.716;9.648;2023-06-22T12:35:09;38.30;1.00
3684;DHT22;1858;48.716;9.648;2023-06-22T12:37:44;38.10;1.00
3684;DHT22;1858;48.716;9.648;2023-06-22T12:40:11;38.20;1.00
3684;DHT22;1858;48.716;9.648;2023-06-22T12:42:40;38.20;1.00
3684;DHT22;1858;48.716;9.648;2023-06-22T12:45:10;38.30;1.00
3684;DHT22;1858;48.716;9.648;2023-06-22T12:47:38;38.30;1.00
3684;DHT22;1858;48.716;9.648;2023-06-22T12:50:07;38.30;1.00
3684;DHT22;1858;48.716;9.648;2023-06-22T12:52:37;38.00;1.00
3684;DHT22;1858;48.716;9.648;2023-06-22T12:55:10;38.00;1.00
3684;DHT22;1858;48.716;9.648;2023-06-22T12:57:38;37.90;1.00
3684;DHT22;1858;48.716;9.648;2023-06-22T13:02:56;37.60;1.00
3684;DHT22;1858;48.716;9.648;2023-06-22T13:05:25;37.50;1.00
3684;DHT22;1858;48.716;9.648;2023-06-22T13:07:54;37.40;1.00
3684;DHT22;1858;48.716;9.648;2023-06-22T13:10:22;37.20;1.00
3684;DHT22;1858;48.716;9.648;2023-06-22T13:12:51;37.00;1.00
3684;DHT22;1858;48.716;9.648;2023-06-22T13:15:21;36.80;1.00
3684;DHT22;1858;48.716;9.648;2023-06-22T13:17:49;36.50;1.00
3684;DHT22;1858;48.716;9.648;2023-06-22T13:20:18;36.50;1.00
3684;DHT22;1858;48.716;9.648;2023-06-22T13:22:47;36.50;1.00
3684;DHT22;1858;48.716;9.648;2023-06-22T13:25:15;36.60;1.00
3684;DHT22;1858;48.716;9.648;2023-06-22T13:27:46;36.60;1.00
3684;DHT22;1858;48.716;9.648;2023-06-22T13:30:15;36.50;1.00
3684;DHT22;1858;48.716;9.648;2023-06-22T13:32:43;36.50;1.00
3684;DHT22;1858;48.716;9.648;2023-06-22T13:35:12;36.50;1.00
3684;DHT22;1858;48.716;9.648;2023-06-22T13:37:40;36.50;1.00
3684;DHT22;1858;48.716;9.648;2023-06-22T13:40:09;36.50;1.00
3684;DHT22;1858;48.716;9.648;2023-06-22T13:42:58;36.30;1.00
3684;DHT22;1858;48.716;9.648;2023-06-22T13:45:28;36.30;1.00
3684;DHT22;1858;48.716;9.648;2023-06-22T13:47:56;36.40;1.00
3684;DHT22;1858;48.716;9.648;2023-06-22T13:50:25;36.30;1.00
3684;DHT22;1858;48.716;9.648;2023-06-22T13:52:53;36.40;1.00
3684;DHT22;1858;48.716;9.648;2023-06-22T13:55:22;36.50;1.00
3684;DHT22;1858;48.716;9.648;2023-06-22T13:58:10;36.60;1.00
3684;DHT22;1858;48.716;9.648;2023-06-22T14:00:38;36.60;1.00
3684;DHT22;1858;48.716;9.648;2023-06-22T14:03:07;36.80;1.00
3684;DHT22;1858;48.716;9.648;2023-06-22T14:05:35;36.70;1.00
3684;DHT22;1858;48.716;9.648;2023-06-22T14:08:03;36.60;1.00
3684;DHT22;1858;48.716;9.648;2023-06-22T14:10:32;36.60;1.00
3684;DHT22;1858;48.716;9.648;2023-06-22T14:13:04;36.60;1.00
3684;DHT22;1858;48.716;9.648;2023-06-22T14:15:33;36.50;1.00
3684;DHT22;1858;48.716;9.648;2023-06-22T14:18:01;36.40;1.00
3684;DHT22;1858;48.716;9.648;2023-06-22T14:20:30;36.40;1.00
3684;DHT22;1858;48.716;9.648;2023-06-22T14:22:58;36.40;1.00
3684;DHT22;1858;48.716;9.648;2023-06-22T14:25:26;36.50;1.00
3684;DHT22;1858;48.716;9.648;2023-06-22T14:27:55;36.70;1.00
3684;DHT22;1858;48.716;9.648;2023-06-22T14:30:42;36.70;1.00
3684;DHT22;1858;48.716;9.648;2023-06-22T14:33:12;36.80;1.00
3684;DHT22;1858;48.716;9.648;2023-06-22T14:35:40;36.80;1.00
3684;DHT22;1858;48.716;9.648;2023-06-22T14:38:09;36.60;1.00
3684;DHT22;1858;48.716;9.648;2023-06-22T14:40:37;36.50;1.00
3684;DHT22;1858;48.716;9.648;2023-06-22T14:43:25;36.40;1.00
3684;DHT22;1858;48.716;9.648;2023-06-22T14:45:55;36.30;1.00
3684;DHT22;1858;48.716;9.648;2023-06-22T14:48:23;36.20;1.00
3684;DHT22;1858;48.716;9.648;2023-06-22T14:50:52;36.10;1.00
3684;DHT22;1858;48.716;9.648;2023-06-22T14:53:21;36.00;1.00
3684;DHT22;1858;48.716;9.648;2023-06-22T14:55:56;36.10;1.00
3684;DHT22;1858;48.716;9.648;2023-06-22T14:58:24;36.00;1.00
3684;DHT22;1858;48.716;9.648;2023-06-22T15:00:53;36.10;1.00
3684;DHT22;1858;48.716;9.648;2023-06-22T15:03:21;35.80;1.00
3684;DHT22;1858;48.716;9.648;2023-06-22T15:05:51;35.90;1.00
3684;DHT22;1858;48.716;9.648;2023-06-22T15:08:19;35.90;1.00
3684;DHT22;1858;48.716;9.648;2023-06-22T15:10:48;35.70;1.00
3684;DHT22;1858;48.716;9.648;2023-06-22T15:13:16;35.50;1.00
3684;DHT22;1858;48.716;9.648;2023-06-22T15:15:46;35.50;1.00
3684;DHT22;1858;48.716;9.648;2023-06-22T15:18:15;35.30;1.00
3684;DHT22;1858;48.716;9.648;2023-06-22T15:20:44;35.10;1.00
3684;DHT22;1858;48.716;9.648;2023-06-22T15:23:32;34.80;1.00
3684;DHT22;1858;48.716;9.648;2023-06-22T15:26:20;34.70;1.00
3684;DHT22;1858;48.716;9.648;2023-06-22T15:28:48;34.70;1.00
3684;DHT22;1858;48.716;9.648;2023-06-22T15:31:17;34.70;1.00
3684;DHT22;1858;48.716;9.648;2023-06-22T15:33:45;34.80;1.00
3684;DHT22;1858;48.716;9.648;2023-06-22T15:36:14;34.90;1.00
3684;DHT22;1858;48.716;9.648;2023-06-22T15:38:42;35.00;1.00
3684;DHT22;1858;48.716;9.648;2023-06-22T15:41:11;35.10;1.00
3684;DHT22;1858;48.716;9.648;2023-06-22T15:43:39;35.20;1.00
3684;DHT22;1858;48.716;9.648;2023-06-22T15:46:07;35.10;1.00
3684;DHT22;1858;48.716;9.648;2023-06-22T15:48:36;35.10;1.00
3684;DHT22;1858;48.716;9.648;2023-06-22T15:51:04;35.10;1.00
3684;DHT22;1858;48.716;9.648;2023-06-22T15:53:32;35.00;1.00
3684;DHT22;1858;48.716;9.648;2023-06-22T15:56:01;35.10;1.00
3684;DHT22;1858;48.716;9.648;2023-06-22T15:58:29;35.00;1.00
3684;DHT22;1858;48.716;9.648;2023-06-22T16:00:58;35.10;1.00
3684;DHT22;1858;48.716;9.648;2023-06-22T16:03:26;35.00;1.00
3684;DHT22;1858;48.716;9.648;2023-06-22T16:05:55;35.10;1.00
3684;DHT22;1858;48.716;9.648;2023-06-22T16:08:23;35.10;1.00
3684;DHT22;1858;48.716;9.648;2023-06-22T16:10:52;34.90;1.00
3684;DHT22;1858;48.716;9.648;2023-06-22T16:13:21;34.80;1.00
3684;DHT22;1858;48.716;9.648;2023-06-22T16:15:50;34.60;1.00
3684;DHT22;1858;48.716;9.648;2023-06-22T16:18:19;34.50;1.00
3684;DHT22;1858;48.716;9.648;2023-06-22T16:20:47;34.30;1.00
3684;DHT22;1858;48.716;9.648;2023-06-22T16:23:16;34.10;1.00
3684;DHT22;1858;48.716;9.648;2023-06-22T16:25:44;34.00;1.00
3684;DHT22;1858;48.716;9.648;2023-06-22T16:28:15;33.90;1.00
3684;DHT22;1858;48.716;9.648;2023-06-22T16:30:43;33.80;1.00
3684;DHT22;1858;48.716;9.648;2023-06-22T16:33:12;33.70;1.00
3684;DHT22;1858;48.716;9.648;2023-06-22T16:35:41;33.40;1.00
3684;DHT22;1858;48.716;9.648;2023-06-22T16:38:09;33.30;1.00
3684;DHT22;1858;48.716;9.648;2023-06-22T16:40:37;33.30;1.00
3684;DHT22;1858;48.716;9.648;2023-06-22T16:43:06;33.30;1.00
3684;DHT22;1858;48.716;9.648;2023-06-22T16:45:34;33.30;1.00
3684;DHT22;1858;48.716;9.648;2023-06-22T16:48:03;33.40;1.00
3684;DHT22;1858;48.716;9.648;2023-06-22T16:50:31;33.40;1.00
3684;DHT22;1858;48.716;9.648;2023-06-22T16:53:00;33.30;1.00
3684;DHT22;1858;48.716;9.648;2023-06-22T16:55:31;33.30;1.00
3684;DHT22;1858;48.716;9.648;2023-06-22T16:58:00;33.20;1.00
3684;DHT22;1858;48.716;9.648;2023-06-22T17:00:30;33.20;1.00
3684;DHT22;1858;48.716;9.648;2023-06-22T17:03:02;33.10;1.00